sensor_id;sensor_type;location;lat;lon;timestamp;temperature;humidity
14093;DHT22;7123;49.468;10.992;2024-01-16T00:00:30;0.00;99.90
14093;DHT22;7123;49.468;10.992;2024-01-16T00:02:57;0.00;99.90
14093;DHT22;7123;49.468;10.992;2024-01-16T00:05:24;0.00;99.90
14093;DHT22;7123;49.468;10.992;2024-01-16T00:07:51;0.00;99.90
14093;DHT22;7123;49.468;10.992;2024-01-16T00:10:17;-0.10;99.90
14093;DHT22;7123;49.468;10.992;2024-01-16T00:12:44;-0.10;99.90
14093;DHT22;7123;49.468;10.992;2024-01-16T00:15:11;-0.10;99.90
14093;DHT22;7123;49.468;10.992;2024-01-16T00:17:38;-0.10;99.90
14093;DHT22;7123;49.468;10.992;2024-01-16T00:20:05;-0.10;99.90
14093;DHT22;7123;49.468;10.992;2024-01-16T00:22:32;-0.10;99.90
14093;DHT22;7123;49.468;10.992;2024-01-16T00:24:59;-0.10;99.90
14093;DHT22;7123;49.468;10.992;2024-01-16T00:27:26;-0.10;99.90
14093;DHT22;7123;49.468;10.992;2024-01-16T00:29:52;-0.10;99.90
14093;DHT22;7123;49.468;10.992;2024-01-16T00:32:19;0.00;99.90
14093;DHT22;7123;49.468;10.992;2024-01-16T00:34:46;-0.10;99.90
14093;DHT22;7123;49.468;10.992;2024-01-16T00:37:13;-0.10;99.90
14093;DHT22;7123;49.468;10.992;2024-01-16T00:39:40;-0.10;99.90
14093;DHT22;7123;49.468;10.992;2024-01-16T00:42:06;-0.10;99.90
14093;DHT22;7123;49.468;10.992;2024-01-16T00:44:33;-0.10;99.90
14093;DHT22;7123;49.468;10.992;2024-01-16T00:47:01;-0.10;99.90
14093;DHT22;7123;49.468;10.992;2024-01-16T00:49:28;-0.10;99.90
14093;DHT22;7123;49.468;10.992;2024-01-16T00:51:55;-0.10;99.90
14093;DHT22;7123;49.468;10.992;2024-01-16T00:54:22;-0.10;99.90
14093;DHT22;7123;49.468;10.992;2024-01-16T00:56:49;-0.10;99.90
14093;DHT22;7123;49.468;10.992;2024-01-16T00:59:16;-0.10;99.90
14093;DHT22;7123;49.468;10.992;2024-01-16T01:01:43;-0.20;99.90
14093;DHT22;7123;49.468;10.992;2024-01-16T01:04:10;-0.20;99.90
14093;DHT22;7123;49.468;10.992;2024-01-16T01:06:36;-0.10;99.90
14093;DHT22;7123;49.468;10.992;2024-01-16T01:09:03;-0.20;99.90
14093;DHT22;7123;49.468;10.992;2024-01-16T01:11:30;-0.10;99.90
14093;DHT22;7123;49.468;10.992;2024-01-16T01:13:57;-0.20;99.90
14093;DHT22;7123;49.468;10.992;2024-01-16T01:16:23;-0.20;99.90
14093;DHT22;7123;49.468;10.992;2024-01-16T01:18:50;-0.20;99.90
14093;DHT22;7123;49.468;10.992;2024-01-16T01:21:17;-0.20;99.90
14093;DHT22;7123;49.468;10.992;2024-01-16T01:23:44;-0.20;99.90
14093;DHT22;7123;49.468;10.992;2024-01-16T01:26:11;-0.20;99.90
14093;DHT22;7123;49.468;10.992;2024-01-16T01:28:40;-0.20;99.90
14093;DHT22;7123;49.468;10.992;2024-01-16T01:31:13;-0.20;99.90
14093;DHT22;7123;49.468;10.992;2024-01-16T01:33:40;-0.20;99.90
14093;DHT22;7123;49.468;10.992;2024-01-16T01:36:07;-0.30;99.90
14093;DHT22;7123;49.468;10.992;2024-01-16T01:38:34;-0.30;99.90
14093;DHT22;7123;49.468;10.992;2024-01-16T01:41:00;-0.20;99.90
14093;DHT22;7123;49.468;10.992;2024-01-16T01:43:27;-0.20;99.90
14093;DHT22;7123;49.468;10.992;2024-01-16T01:48:31;-0.30;99.90
14093;DHT22;7123;49.468;10.992;2024-01-16T01:50:59;-0.20;99.90
14093;DHT22;7123;49.468;10.992;2024-01-16T01:53:27;-0.30;99.90
14093;DHT22;7123;49.468;10.992;2024-01-16T01:55:55;-0.20;99.90
14093;DHT22;7123;49.468;10.992;2024-01-16T01:58:23;-0.20;99.90
14093;DHT22;7123;49.468;10.992;2024-01-16T02:00:50;-0.20;99.90
14093;DHT22;7123;49.468;10.992;2024-01-16T02:03:18;-0.20;99.90
14093;DHT22;7123;49.468;10.992;2024-01-16T02:05:46;-0.20;99.90
14093;DHT22;7123;49.468;10.992;2024-01-16T02:08:13;-0.20;99.90
14093;DHT22;7123;49.468;10.992;2024-01-16T02:10:42;-0.20;99.90
14093;DHT22;7123;49.468;10.992;2024-01-16T02:13:12;-0.20;99.90
14093;DHT22;7123;49.468;10.992;2024-01-16T02:15:39;-0.20;99.90
14093;DHT22;7123;49.468;10.992;2024-01-16T02:18:07;-0.20;99.90
14093;DHT22;7123;49.468;10.992;2024-01-16T02:20:34;-0.20;99.90
14093;DHT22;7123;49.468;10.992;2024-01-16T02:23:03;-0.30;99.90
14093;DHT22;7123;49.468;10.992;2024-01-16T02:25:30;-0.30;99.90
14093;DHT22;7123;49.468;10.992;2024-01-16T02:27:57;-0.30;99.90
14093;DHT22;7123;49.468;10.992;2024-01-16T02:30:24;-0.30;99.90
14093;DHT22;7123;49.468;10.992;2024-01-16T02:32:51;-0.30;99.90
14093;DHT22;7123;49.468;10.992;2024-01-16T02:35:17;-0.30;99.90
14093;DHT22;7123;49.468;10.992;2024-01-16T02:37:45;-0.30;99.90
14093;DHT22;7123;49.468;10.992;2024-01-16T02:40:11;-0.30;99.90
14093;DHT22;7123;49.468;10.992;2024-01-16T02:42:38;-0.30;99.90
14093;DHT22;7123;49.468;10.992;2024-01-16T02:45:06;-0.30;99.90
14093;DHT22;7123;49.468;10.992;2024-01-16T02:47:33;-0.30;99.90
14093;DHT22;7123;49.468;10.992;2024-01-16T02:50:00;-0.30;99.90
14093;DHT22;7123;49.468;10.992;2024-01-16T02:52:27;-0.30;99.90
14093;DHT22;7123;49.468;10.992;2024-01-16T02:54:53;-0.30;99.90
14093;DHT22;7123;49.468;10.992;2024-01-16T02:57:20;-0.30;99.90
14093;DHT22;7123;49.468;10.992;2024-01-16T02:59:47;-0.30;99.90
14093;DHT22;7123;49.468;10.992;2024-01-16T03:02:14;-0.30;99.90
14093;DHT22;7123;49.468;10.992;2024-01-16T03:04:41;-0.30;99.90
14093;DHT22;7123;49.468;10.992;2024-01-16T03:07:08;-0.30;99.90
14093;DHT22;7123;49.468;10.992;2024-01-16T03:09:34;-0.30;99.90
14093;DHT22;7123;49.468;10.992;2024-01-16T03:12:01;-0.30;99.90
14093;DHT22;7123;49.468;10.992;2024-01-16T03:14:28;-0.30;99.90
14093;DHT22;7123;49.468;10.992;2024-01-16T03:17:03;-0.30;99.90
14093;DHT22;7123;49.468;10.992;2024-01-16T03:19:30;-0.30;99.90
14093;DHT22;7123;49.468;10.992;2024-01-16T03:21:57;-0.30;99.90
14093;DHT22;7123;49.468;10.992;2024-01-16T03:24:23;-0.40;99.90
14093;DHT22;7123;49.468;10.992;2024-01-16T03:26:50;-0.40;99.90
14093;DHT22;7123;49.468;10.992;2024-01-16T03:29:17;-0.40;99.90
14093;DHT22;7123;49.468;10.992;2024-01-16T03:31:44;-0.30;99.90
14093;DHT22;7123;49.468;10.992;2024-01-16T03:34:11;-0.40;99.90
14093;DHT22;7123;49.468;10.992;2024-01-16T03:36:37;-0.30;99.90
14093;DHT22;7123;49.468;10.992;2024-01-16T03:39:04;-0.30;99.90
14093;DHT22;7123;49.468;10.992;2024-01-16T03:41:32;-0.30;99.90
14093;DHT22;7123;49.468;10.992;2024-01-16T03:43:59;-0.40;99.90
14093;DHT22;7123;49.468;10.992;2024-01-16T03:46:25;-0.30;99.90
14093;DHT22;7123;49.468;10.992;2024-01-16T03:48:52;-0.30;99.90
14093;DHT22;7123;49.468;10.992;2024-01-16T03:51:19;-0.30;99.90
14093;DHT22;7123;49.468;10.992;2024-01-16T03:53:46;-0.40;99.90
14093;DHT22;7123;49.468;10.992;2024-01-16T03:56:13;-0.30;99.90
14093;DHT22;7123;49.468;10.992;2024-01-16T03:58:40;-0.30;99.90
14093;DHT22;7123;49.468;10.992;2024-01-16T04:01:08;-0.40;99.90
14093;DHT22;7123;49.468;10.992;2024-01-16T04:03:35;-0.40;99.90
14093;DHT22;7123;49.468;10.992;2024-01-16T04:06:02;-0.40;99.90
14093;DHT22;7123;49.468;10.992;2024-01-16T04:08:29;-0.40;99.90
14093;DHT22;7123;49.468;10.992;2024-01-16T04:10:56;-0.40;99.90
14093;DHT22;7123;49.468;10.992;2024-01-16T04:13:23;-0.40;99.90
14093;DHT22;7123;49.468;10.992;2024-01-16T04:15:50;-0.40;99.90
14093;DHT22;7123;49.468;10.992;2024-01-16T04:18:16;-0.40;99.90
14093;DHT22;7123;49.468;10.992;2024-01-16T04:20:44;-0.40;99.90
14093;DHT22;7123;49.468;10.992;2024-01-16T04:23:10;-0.40;99.90
14093;DHT22;7123;49.468;10.992;2024-01-16T04:25:38;-0.30;99.90
14093;DHT22;7123;49.468;10.992;2024-01-16T04:28:05;-0.40;99.90
14093;DHT22;7123;49.468;10.992;2024-01-16T04:30:32;-0.40;99.90
14093;DHT22;7123;49.468;10.992;2024-01-16T04:32:59;-0.40;99.90
14093;DHT22;7123;49.468;10.992;2024-01-16T04:35:26;-0.40;99.90
14093;DHT22;7123;49.468;10.992;2024-01-16T04:37:53;-0.40;99.90
14093;DHT22;7123;49.468;10.992;2024-01-16T04:40:19;-0.40;99.90
14093;DHT22;7123;49.468;10.992;2024-01-16T04:42:46;-0.50;99.90
14093;DHT22;7123;49.468;10.992;2024-01-16T04:45:13;-0.50;99.90
14093;DHT22;7123;49.468;10.992;2024-01-16T04:47:40;-0.50;99.90
14093;DHT22;7123;49.468;10.992;2024-01-16T04:50:07;-0.50;99.90
14093;DHT22;7123;49.468;10.992;2024-01-16T04:52:34;-0.50;99.90
14093;DHT22;7123;49.468;10.992;2024-01-16T04:55:01;-0.50;99.90
14093;DHT22;7123;49.468;10.992;2024-01-16T04:57:28;-0.50;99.90
14093;DHT22;7123;49.468;10.992;2024-01-16T04:59:55;-0.50;99.90
14093;DHT22;7123;49.468;10.992;2024-01-16T05:02:22;-0.50;99.90
14093;DHT22;7123;49.468;10.992;2024-01-16T05:04:49;-0.50;99.90
14093;DHT22;7123;49.468;10.992;2024-01-16T05:07:18;-0.50;99.90
14093;DHT22;7123;49.468;10.992;2024-01-16T05:09:47;-0.50;99.90
14093;DHT22;7123;49.468;10.992;2024-01-16T05:12:13;-0.50;99.90
14093;DHT22;7123;49.468;10.992;2024-01-16T05:14:40;-0.50;99.90
14093;DHT22;7123;49.468;10.992;2024-01-16T05:17:07;-0.50;99.90
14093;DHT22;7123;49.468;10.992;2024-01-16T05:19:34;-0.50;99.90
14093;DHT22;7123;49.468;10.992;2024-01-16T05:22:01;-0.50;99.90
14093;DHT22;7123;49.468;10.992;2024-01-16T05:24:29;-0.50;99.90
14093;DHT22;7123;49.468;10.992;2024-01-16T05:26:56;-0.50;99.90
14093;DHT22;7123;49.468;10.992;2024-01-16T05:29:23;-0.60;99.90
14093;DHT22;7123;49.468;10.992;2024-01-16T05:31:50;-0.60;99.90
14093;DHT22;7123;49.468;10.992;2024-01-16T05:34:16;-0.60;99.90
14093;DHT22;7123;49.468;10.992;2024-01-16T05:36:43;-0.60;99.90
14093;DHT22;7123;49.468;10.992;2024-01-16T05:39:10;-0.60;99.90
14093;DHT22;7123;49.468;10.992;2024-01-16T05:41:37;-0.60;99.90
14093;DHT22;7123;49.468;10.992;2024-01-16T05:44:04;-0.60;99.90
14093;DHT22;7123;49.468;10.992;2024-01-16T05:46:32;-0.70;99.90
14093;DHT22;7123;49.468;10.992;2024-01-16T05:48:59;-0.70;99.90
14093;DHT22;7123;49.468;10.992;2024-01-16T05:51:27;-0.70;99.90
14093;DHT22;7123;49.468;10.992;2024-01-16T05:53:55;-0.70;99.90
14093;DHT22;7123;49.468;10.992;2024-01-16T05:56:21;-0.70;99.90
14093;DHT22;7123;49.468;10.992;2024-01-16T05:58:48;-0.70;99.90
14093;DHT22;7123;49.468;10.992;2024-01-16T06:01:15;-0.70;99.90
14093;DHT22;7123;49.468;10.992;2024-01-16T06:03:42;-0.70;99.90
14093;DHT22;7123;49.468;10.992;2024-01-16T06:06:12;-0.70;99.90
14093;DHT22;7123;49.468;10.992;2024-01-16T06:08:38;-0.70;99.90
14093;DHT22;7123;49.468;10.992;2024-01-16T06:11:05;-0.70;99.90
14093;DHT22;7123;49.468;10.992;2024-01-16T06:13:32;-0.70;99.90
14093;DHT22;7123;49.468;10.992;2024-01-16T06:15:59;-0.70;99.90
14093;DHT22;7123;49.468;10.992;2024-01-16T06:18:26;-0.70;99.90
14093;DHT22;7123;49.468;10.992;2024-01-16T06:20:53;-0.60;99.90
14093;DHT22;7123;49.468;10.992;2024-01-16T06:23:20;-0.70;99.90
14093;DHT22;7123;49.468;10.992;2024-01-16T06:25:47;-0.70;99.90
14093;DHT22;7123;49.468;10.992;2024-01-16T06:28:13;-0.70;99.90
14093;DHT22;7123;49.468;10.992;2024-01-16T06:30:40;-0.60;99.90
14093;DHT22;7123;49.468;10.992;2024-01-16T06:33:07;-0.60;99.90
14093;DHT22;7123;49.468;10.992;2024-01-16T06:35:34;-0.60;99.90
14093;DHT22;7123;49.468;10.992;2024-01-16T06:38:01;-0.60;99.90
14093;DHT22;7123;49.468;10.992;2024-01-16T06:40:28;-0.70;99.90
14093;DHT22;7123;49.468;10.992;2024-01-16T06:42:55;-0.70;99.90
14093;DHT22;7123;49.468;10.992;2024-01-16T06:45:22;-0.70;99.90
14093;DHT22;7123;49.468;10.992;2024-01-16T06:47:48;-0.70;99.90
14093;DHT22;7123;49.468;10.992;2024-01-16T06:50:17;-0.60;99.90
14093;DHT22;7123;49.468;10.992;2024-01-16T06:52:44;-0.70;99.90
14093;DHT22;7123;49.468;10.992;2024-01-16T06:55:11;-0.60;99.90
14093;DHT22;7123;49.468;10.992;2024-01-16T06:57:37;-0.60;99.90
14093;DHT22;7123;49.468;10.992;2024-01-16T07:00:05;-0.60;99.90
14093;DHT22;7123;49.468;10.992;2024-01-16T07:02:33;-0.60;99.90
14093;DHT22;7123;49.468;10.992;2024-01-16T07:05:00;-0.60;99.90
14093;DHT22;7123;49.468;10.992;2024-01-16T07:07:27;-0.60;99.90
14093;DHT22;7123;49.468;10.992;2024-01-16T07:09:54;-0.60;99.90
14093;DHT22;7123;49.468;10.992;2024-01-16T07:12:20;-0.60;99.90
14093;DHT22;7123;49.468;10.992;2024-01-16T07:14:47;-0.60;99.90
14093;DHT22;7123;49.468;10.992;2024-01-16T07:17:14;-0.60;99.90
14093;DHT22;7123;49.468;10.992;2024-01-16T07:19:41;-0.60;99.90
14093;DHT22;7123;49.468;10.992;2024-01-16T07:22:08;-0.50;99.90
14093;DHT22;7123;49.468;10.992;2024-01-16T07:24:34;-0.50;99.90
14093;DHT22;7123;49.468;10.992;2024-01-16T07:27:01;-0.60;99.90
14093;DHT22;7123;49.468;10.992;2024-01-16T07:29:29;-0.60;99.90
14093;DHT22;7123;49.468;10.992;2024-01-16T07:31:56;-0.60;99.90
14093;DHT22;7123;49.468;10.992;2024-01-16T07:34:22;-0.60;99.90
14093;DHT22;7123;49.468;10.992;2024-01-16T07:36:49;-0.60;99.90
14093;DHT22;7123;49.468;10.992;2024-01-16T07:39:16;-0.60;99.90
14093;DHT22;7123;49.468;10.992;2024-01-16T07:41:43;-0.60;99.90
14093;DHT22;7123;49.468;10.992;2024-01-16T07:44:09;-0.60;99.90
14093;DHT22;7123;49.468;10.992;2024-01-16T07:46:36;-0.60;99.90
14093;DHT22;7123;49.468;10.992;2024-01-16T07:49:03;-0.60;99.90
14093;DHT22;7123;49.468;10.992;2024-01-16T07:51:30;-0.50;99.90
14093;DHT22;7123;49.468;10.992;2024-01-16T07:54:08;-0.50;99.90
14093;DHT22;7123;49.468;10.992;2024-01-16T07:56:36;-0.50;99.90
14093;DHT22;7123;49.468;10.992;2024-01-16T07:59:03;-0.50;99.90
14093;DHT22;7123;49.468;10.992;2024-01-16T08:01:30;-0.50;99.90
14093;DHT22;7123;49.468;10.992;2024-01-16T08:03:57;-0.40;99.90
14093;DHT22;7123;49.468;10.992;2024-01-16T08:06:23;-0.40;99.90
14093;DHT22;7123;49.468;10.992;2024-01-16T08:08:50;-0.30;99.90
14093;DHT22;7123;49.468;10.992;2024-01-16T08:11:18;-0.30;99.90
14093;DHT22;7123;49.468;10.992;2024-01-16T08:13:45;-0.30;99.90
14093;DHT22;7123;49.468;10.992;2024-01-16T08:16:12;-0.30;99.90
14093;DHT22;7123;49.468;10.992;2024-01-16T08:18:38;-0.30;99.90
14093;DHT22;7123;49.468;10.992;2024-01-16T08:21:05;-0.30;99.90
14093;DHT22;7123;49.468;10.992;2024-01-16T08:23:32;-0.20;99.90
14093;DHT22;7123;49.468;10.992;2024-01-16T08:25:59;-0.20;99.90
14093;DHT22;7123;49.468;10.992;2024-01-16T08:28:27;-0.30;99.90
14093;DHT22;7123;49.468;10.992;2024-01-16T08:30:54;-0.30;99.90
14093;DHT22;7123;49.468;10.992;2024-01-16T08:33:21;-0.20;99.90
14093;DHT22;7123;49.468;10.992;2024-01-16T08:35:59;-0.30;99.90
14093;DHT22;7123;49.468;10.992;2024-01-16T08:38:26;-0.20;99.90
14093;DHT22;7123;49.468;10.992;2024-01-16T08:40:54;-0.20;99.90
14093;DHT22;7123;49.468;10.992;2024-01-16T08:43:21;-0.20;99.90
14093;DHT22;7123;49.468;10.992;2024-01-16T08:45:47;-0.20;99.90
14093;DHT22;7123;49.468;10.992;2024-01-16T08:48:14;-0.20;99.90
14093;DHT22;7123;49.468;10.992;2024-01-16T08:50:41;-0.30;99.90
14093;DHT22;7123;49.468;10.992;2024-01-16T08:53:08;-0.30;99.90
14093;DHT22;7123;49.468;10.992;2024-01-16T08:55:35;-0.30;99.90
14093;DHT22;7123;49.468;10.992;2024-01-16T08:58:02;-0.30;99.90
14093;DHT22;7123;49.468;10.992;2024-01-16T09:00:29;-0.20;99.90
14093;DHT22;7123;49.468;10.992;2024-01-16T09:02:55;-0.30;99.90
14093;DHT22;7123;49.468;10.992;2024-01-16T09:05:22;-0.30;99.90
14093;DHT22;7123;49.468;10.992;2024-01-16T09:07:52;-0.20;99.90
14093;DHT22;7123;49.468;10.992;2024-01-16T09:10:21;-0.20;99.90
14093;DHT22;7123;49.468;10.992;2024-01-16T09:12:48;-0.20;99.90
14093;DHT22;7123;49.468;10.992;2024-01-16T09:15:15;-0.20;99.90
14093;DHT22;7123;49.468;10.992;2024-01-16T09:17:42;-0.20;99.90
14093;DHT22;7123;49.468;10.992;2024-01-16T09:20:09;-0.20;99.90
14093;DHT22;7123;49.468;10.992;2024-01-16T09:22:36;-0.20;99.90
14093;DHT22;7123;49.468;10.992;2024-01-16T09:25:02;-0.10;99.90
14093;DHT22;7123;49.468;10.992;2024-01-16T09:27:29;-0.10;99.90
14093;DHT22;7123;49.468;10.992;2024-01-16T09:29:56;-0.10;99.90
14093;DHT22;7123;49.468;10.992;2024-01-16T09:32:23;0.00;99.90
14093;DHT22;7123;49.468;10.992;2024-01-16T09:34:50;-0.10;99.90
14093;DHT22;7123;49.468;10.992;2024-01-16T09:37:17;-0.10;99.90
14093;DHT22;7123;49.468;10.992;2024-01-16T09:39:43;-0.10;99.90
14093;DHT22;7123;49.468;10.992;2024-01-16T09:42:11;-0.10;99.90
14093;DHT22;7123;49.468;10.992;2024-01-16T09:44:38;-0.10;99.90
14093;DHT22;7123;49.468;10.992;2024-01-16T09:47:05;0.00;99.90
14093;DHT22;7123;49.468;10.992;2024-01-16T09:49:34;0.00;99.90
14093;DHT22;7123;49.468;10.992;2024-01-16T09:52:00;0.00;99.90
14093;DHT22;7123;49.468;10.992;2024-01-16T09:54:28;0.00;99.90
14093;DHT22;7123;49.468;10.992;2024-01-16T09:56:58;0.00;99.90
14093;DHT22;7123;49.468;10.992;2024-01-16T09:59:26;0.10;99.90
14093;DHT22;7123;49.468;10.992;2024-01-16T10:01:55;0.10;99.90
14093;DHT22;7123;49.468;10.992;2024-01-16T10:04:22;0.10;99.90
14093;DHT22;7123;49.468;10.992;2024-01-16T10:06:51;0.00;99.90
14093;DHT22;7123;49.468;10.992;2024-01-16T10:09:21;0.00;99.90
14093;DHT22;7123;49.468;10.992;2024-01-16T10:11:48;0.10;99.90
14093;DHT22;7123;49.468;10.992;2024-01-16T10:14:18;0.00;99.90
14093;DHT22;7123;49.468;10.992;2024-01-16T10:17:04;0.00;99.90
14093;DHT22;7123;49.468;10.992;2024-01-16T10:19:52;0.10;99.90
14093;DHT22;7123;49.468;10.992;2024-01-16T10:22:24;0.10;99.90
14093;DHT22;7123;49.468;10.992;2024-01-16T10:25:07;0.00;99.90
14093;DHT22;7123;49.468;10.992;2024-01-16T10:27:46;0.00;99.90
14093;DHT22;7123;49.468;10.992;2024-01-16T10:30:13;0.00;99.90
14093;DHT22;7123;49.468;10.992;2024-01-16T10:32:41;0.10;99.90
14093;DHT22;7123;49.468;10.992;2024-01-16T10:35:13;0.10;99.90
14093;DHT22;7123;49.468;10.992;2024-01-16T10:38:15;0.10;99.90
14093;DHT22;7123;49.468;10.992;2024-01-16T10:40:35;0.20;99.90
14093;DHT22;7123;49.468;10.992;2024-01-16T10:43:03;0.20;99.90
14093;DHT22;7123;49.468;10.992;2024-01-16T10:45:32;0.20;99.90
14093;DHT22;7123;49.468;10.992;2024-01-16T10:48:05;0.20;99.90
14093;DHT22;7123;49.468;10.992;2024-01-16T10:50:35;0.20;99.90
14093;DHT22;7123;49.468;10.992;2024-01-16T10:53:06;0.30;99.90
14093;DHT22;7123;49.468;10.992;2024-01-16T10:55:59;0.20;99.90
14093;DHT22;7123;49.468;10.992;2024-01-16T10:58:25;0.30;99.90
14093;DHT22;7123;49.468;10.992;2024-01-16T11:00:57;0.30;99.90
14093;DHT22;7123;49.468;10.992;2024-01-16T11:03:46;0.30;99.90
14093;DHT22;7123;49.468;10.992;2024-01-16T11:06:15;0.40;99.90
14093;DHT22;7123;49.468;10.992;2024-01-16T11:08:46;0.40;99.90
14093;DHT22;7123;49.468;10.992;2024-01-16T11:11:14;0.40;99.90
14093;DHT22;7123;49.468;10.992;2024-01-16T11:13:41;0.30;99.90
14093;DHT22;7123;49.468;10.992;2024-01-16T11:16:11;0.40;99.90
14093;DHT22;7123;49.468;10.992;2024-01-16T11:18:38;0.40;99.90
14093;DHT22;7123;49.468;10.992;2024-01-16T11:21:08;0.50;99.90
14093;DHT22;7123;49.468;10.992;2024-01-16T11:23:41;0.40;99.90
14093;DHT22;7123;49.468;10.992;2024-01-16T11:26:25;0.50;99.90
14093;DHT22;7123;49.468;10.992;2024-01-16T11:28:54;0.50;99.90
14093;DHT22;7123;49.468;10.992;2024-01-16T11:31:35;0.60;99.90
14093;DHT22;7123;49.468;10.992;2024-01-16T11:34:02;0.60;99.90
14093;DHT22;7123;49.468;10.992;2024-01-16T11:39:17;0.60;99.90
14093;DHT22;7123;49.468;10.992;2024-01-16T11:41:51;0.60;99.90
14093;DHT22;7123;49.468;10.992;2024-01-16T11:44:45;0.70;99.90
14093;DHT22;7123;49.468;10.992;2024-01-16T11:47:18;0.70;99.90
14093;DHT22;7123;49.468;10.992;2024-01-16T11:49:47;0.70;99.90
14093;DHT22;7123;49.468;10.992;2024-01-16T11:52:14;0.80;99.90
14093;DHT22;7123;49.468;10.992;2024-01-16T11:54:42;0.90;99.90
14093;DHT22;7123;49.468;10.992;2024-01-16T11:57:20;1.00;99.90
14093;DHT22;7123;49.468;10.992;2024-01-16T12:00:01;1.10;99.90
14093;DHT22;7123;49.468;10.992;2024-01-16T12:02:49;1.10;99.90
14093;DHT22;7123;49.468;10.992;2024-01-16T12:05:16;1.20;99.90
14093;DHT22;7123;49.468;10.992;2024-01-16T12:07:53;1.20;99.90
14093;DHT22;7123;49.468;10.992;2024-01-16T12:10:22;1.20;99.90
14093;DHT22;7123;49.468;10.992;2024-01-16T12:12:51;1.20;99.90
14093;DHT22;7123;49.468;10.992;2024-01-16T12:15:19;1.30;99.90
14093;DHT22;7123;49.468;10.992;2024-01-16T12:20:19;1.30;99.90
14093;DHT22;7123;49.468;10.992;2024-01-16T12:22:56;1.30;99.90
14093;DHT22;7123;49.468;10.992;2024-01-16T12:25:27;1.30;99.90
14093;DHT22;7123;49.468;10.992;2024-01-16T12:28:14;1.20;99.90
14093;DHT22;7123;49.468;10.992;2024-01-16T12:30:57;1.20;99.90
14093;DHT22;7123;49.468;10.992;2024-01-16T12:33:24;1.10;99.90
14093;DHT22;7123;49.468;10.992;2024-01-16T12:36:01;1.10;99.90
14093;DHT22;7123;49.468;10.992;2024-01-16T12:38:30;1.10;99.90
14093;DHT22;7123;49.468;10.992;2024-01-16T12:40:57;1.10;99.90
14093;DHT22;7123;49.468;10.992;2024-01-16T12:43:25;1.20;99.90
14093;DHT22;7123;49.468;10.992;2024-01-16T12:45:58;1.20;99.90
14093;DHT22;7123;49.468;10.992;2024-01-16T12:48:26;1.20;99.90
14093;DHT22;7123;49.468;10.992;2024-01-16T12:51:00;1.20;99.90
14093;DHT22;7123;49.468;10.992;2024-01-16T12:53:32;1.20;99.90
14093;DHT22;7123;49.468;10.992;2024-01-16T12:56:01;1.20;99.90
14093;DHT22;7123;49.468;10.992;2024-01-16T12:58:35;1.20;99.90
14093;DHT22;7123;49.468;10.992;2024-01-16T13:04:04;1.30;99.90
14093;DHT22;7123;49.468;10.992;2024-01-16T13:06:31;1.20;99.90
14093;DHT22;7123;49.468;10.992;2024-01-16T13:09:05;1.20;99.90
14093;DHT22;7123;49.468;10.992;2024-01-16T13:11:53;1.10;99.90
14093;DHT22;7123;49.468;10.992;2024-01-16T13:14:23;1.10;99.90
14093;DHT22;7123;49.468;10.992;2024-01-16T13:16:51;1.10;99.90
14093;DHT22;7123;49.468;10.992;2024-01-16T13:19:22;1.10;99.90
14093;DHT22;7123;49.468;10.992;2024-01-16T13:21:49;1.20;99.90
14093;DHT22;7123;49.468;10.992;2024-01-16T13:24:16;1.10;99.90
14093;DHT22;7123;49.468;10.992;2024-01-16T13:26:50;1.10;99.90
14093;DHT22;7123;49.468;10.992;2024-01-16T13:29:18;1.20;99.90
14093;DHT22;7123;49.468;10.992;2024-01-16T13:31:45;1.30;99.90
14093;DHT22;7123;49.468;10.992;2024-01-16T13:34:12;1.30;99.90
14093;DHT22;7123;49.468;10.992;2024-01-16T13:36:39;1.30;99.90
14093;DHT22;7123;49.468;10.992;2024-01-16T13:39:26;1.30;99.90
14093;DHT22;7123;49.468;10.992;2024-01-16T13:41:53;1.40;99.90
14093;DHT22;7123;49.468;10.992;2024-01-16T13:44:20;1.40;99.90
14093;DHT22;7123;49.468;10.992;2024-01-16T13:46:47;1.40;99.90
14093;DHT22;7123;49.468;10.992;2024-01-16T13:49:31;1.50;99.90
14093;DHT22;7123;49.468;10.992;2024-01-16T13:52:00;1.60;99.90
14093;DHT22;7123;49.468;10.992;2024-01-16T13:54:27;1.60;99.90
14093;DHT22;7123;49.468;10.992;2024-01-16T13:56:54;1.70;99.90
14093;DHT22;7123;49.468;10.992;2024-01-16T13:59:33;1.80;99.90
14093;DHT22;7123;49.468;10.992;2024-01-16T14:02:00;1.90;99.90
14093;DHT22;7123;49.468;10.992;2024-01-16T14:04:27;2.00;99.90
14093;DHT22;7123;49.468;10.992;2024-01-16T14:06:55;2.00;99.90
14093;DHT22;7123;49.468;10.992;2024-01-16T14:09:39;1.90;99.90
14093;DHT22;7123;49.468;10.992;2024-01-16T14:12:08;1.90;99.90
14093;DHT22;7123;49.468;10.992;2024-01-16T14:14:35;1.90;99.90
14093;DHT22;7123;49.468;10.992;2024-01-16T14:17:05;2.00;99.90
14093;DHT22;7123;49.468;10.992;2024-01-16T14:19:33;1.90;99.90
14093;DHT22;7123;49.468;10.992;2024-01-16T14:22:01;1.90;99.90
14093;DHT22;7123;49.468;10.992;2024-01-16T14:24:27;1.90;99.90
14093;DHT22;7123;49.468;10.992;2024-01-16T14:26:54;1.80;99.90
14093;DHT22;7123;49.468;10.992;2024-01-16T14:29:23;1.80;99.90
14093;DHT22;7123;49.468;10.992;2024-01-16T14:31:50;1.80;99.90
14093;DHT22;7123;49.468;10.992;2024-01-16T14:34:18;1.80;99.90
14093;DHT22;7123;49.468;10.992;2024-01-16T14:36:47;1.70;99.90
14093;DHT22;7123;49.468;10.992;2024-01-16T14:39:13;1.70;99.90
14093;DHT22;7123;49.468;10.992;2024-01-16T14:41:44;1.60;99.90
14093;DHT22;7123;49.468;10.992;2024-01-16T14:44:12;1.60;99.90
14093;DHT22;7123;49.468;10.992;2024-01-16T14:46:40;1.60;99.90
14093;DHT22;7123;49.468;10.992;2024-01-16T14:49:09;1.50;99.90
14093;DHT22;7123;49.468;10.992;2024-01-16T14:51:36;1.50;99.90
14093;DHT22;7123;49.468;10.992;2024-01-16T14:54:04;1.50;99.90
14093;DHT22;7123;49.468;10.992;2024-01-16T14:56:31;1.50;99.90
14093;DHT22;7123;49.468;10.992;2024-01-16T14:58:58;1.50;99.90
14093;DHT22;7123;49.468;10.992;2024-01-16T15:01:25;1.50;99.90
14093;DHT22;7123;49.468;10.992;2024-01-16T15:03:52;1.50;99.90
14093;DHT22;7123;49.468;10.992;2024-01-16T15:06:21;1.40;99.90
14093;DHT22;7123;49.468;10.992;2024-01-16T15:08:48;1.40;99.90
14093;DHT22;7123;49.468;10.992;2024-01-16T15:11:15;1.40;99.90
14093;DHT22;7123;49.468;10.992;2024-01-16T15:13:43;1.30;99.90
14093;DHT22;7123;49.468;10.992;2024-01-16T15:16:11;1.30;99.90
14093;DHT22;7123;49.468;10.992;2024-01-16T15:18:38;1.30;99.90
14093;DHT22;7123;49.468;10.992;2024-01-16T15:21:05;1.30;99.90
14093;DHT22;7123;49.468;10.992;2024-01-16T15:23:32;1.20;99.90
14093;DHT22;7123;49.468;10.992;2024-01-16T15:25:59;1.20;99.90
14093;DHT22;7123;49.468;10.992;2024-01-16T15:28:32;1.40;99.90
14093;DHT22;7123;49.468;10.992;2024-01-16T15:31:00;1.20;99.90
14093;DHT22;7123;49.468;10.992;2024-01-16T15:33:34;1.10;99.90
14093;DHT22;7123;49.468;10.992;2024-01-16T15:36:02;1.10;99.90
14093;DHT22;7123;49.468;10.992;2024-01-16T15:38:29;1.20;99.90
14093;DHT22;7123;49.468;10.992;2024-01-16T15:40:56;1.20;99.90
14093;DHT22;7123;49.468;10.992;2024-01-16T15:43:23;1.10;99.90
14093;DHT22;7123;49.468;10.992;2024-01-16T15:45:50;1.10;99.90
14093;DHT22;7123;49.468;10.992;2024-01-16T15:48:17;1.10;99.90
14093;DHT22;7123;49.468;10.992;2024-01-16T15:50:44;1.10;99.90
14093;DHT22;7123;49.468;10.992;2024-01-16T15:53:11;1.10;99.90
14093;DHT22;7123;49.468;10.992;2024-01-16T15:55:42;1.00;99.90